Time;durP1;ratioP1;P1;durP2;ratioP2;P2;SDS_P1;SDS_P2;PMS_P1;PMS_P2;Temp;Humidity;BMP_temperature;BMP_pressure;BME280_temperature;BME280_humidity;BME280_pressure;Samples;Min_cycle;Max_cycle;Signal;HPM_P1;HPM_P2
2021/03/19 00:02:12;;;;;;;118.47;53.30;;;103.00;2227.20;;;;;;5055175;28;20075;-72
2021/03/19 00:04:38;;;;;;;93.80;43.97;;;102.90;2227.20;;;;;;5055076;28;20044;-74
2021/03/19 00:07:04;;;;;;;80.05;38.15;;;102.80;2227.20;;;;;;5055198;28;20352;-72
2021/03/19 00:09:29;;;;;;;54.25;29.58;;;102.90;2227.20;;;;;;5055036;28;20377;-71
2021/03/19 00:11:55;;;;;;;69.30;36.67;;;102.80;2227.20;;;;;;5036714;28;20045;-71
2021/03/19 00:14:21;;;;;;;69.75;36.65;;;102.70;2227.20;;;;;;5055115;28;20034;-71
2021/03/19 00:16:47;;;;;;;53.47;30.35;;;102.80;2227.20;;;;;;5054912;28;20033;-71
2021/03/19 00:19:12;;;;;;;55.40;31.50;;;102.70;2227.20;;;;;;5041996;28;20445;-71
2021/03/19 00:21:38;;;;;;;49.83;28.92;;;102.70;2227.20;;;;;;5044568;28;20132;-68
2021/03/19 00:24:06;;;;;;;56.22;31.67;;;102.70;2227.20;;;;;;5042854;28;20348;-71
2021/03/19 00:26:32;;;;;;;46.10;25.67;;;102.70;2227.20;;;;;;5042680;28;20056;-72
2021/03/19 00:28:58;;;;;;;48.28;28.42;;;102.70;2227.20;;;;;;5044588;28;20025;-72
2021/03/19 00:31:24;;;;;;;42.00;24.45;;;102.60;2227.20;;;;;;5041992;28;20036;-71
2021/03/19 00:33:50;;;;;;;40.47;22.50;;;102.60;2227.20;;;;;;5044298;28;20109;-72
2021/03/19 00:36:15;;;;;;;42.90;24.17;;;102.40;2227.20;;;;;;5042571;28;20570;-70
2021/03/19 00:38:41;;;;;;;47.90;25.38;;;77.70;2227.20;;;;;;5036385;28;20025;-71
2021/03/19 00:41:07;;;;;;;45.10;25.38;;;77.70;2227.20;;;;;;5041992;28;20025;-71
2021/03/19 00:43:33;;;;;;;46.53;25.55;;;77.60;2227.20;;;;;;5042565;28;20490;-70
2021/03/19 00:45:59;;;;;;;44.10;24.63;;;77.60;2227.20;;;;;;5043720;28;20100;-69
2021/03/19 00:48:24;;;;;;;48.40;26.17;;;77.60;2227.20;;;;;;5043704;28;20029;-69
2021/03/19 00:50:51;;;;;;;49.78;26.98;;;77.50;2227.20;;;;;;5042079;28;20039;-70
2021/03/19 00:53:17;;;;;;;52.38;27.27;;;77.50;2227.20;;;;;;5042121;28;20041;-71
2021/03/19 00:55:42;;;;;;;60.40;30.65;;;77.50;2227.20;;;;;;5041455;28;20075;-70
2021/03/19 00:58:08;;;;;;;68.13;34.30;;;77.50;2227.20;;;;;;5042393;28;20379;-69
2021/03/19 01:00:36;;;;;;;51.25;28.17;;;77.50;2227.20;;;;;;5025594;28;20032;-71
2021/03/19 01:03:03;;;;;;;55.75;29.67;;;77.40;2227.20;;;;;;5043118;28;20026;-70
2021/03/19 01:05:35;;;;;;;47.72;26.27;;;77.40;2227.20;;;;;;5063421;28;20052;-69
2021/03/19 01:08:03;;;;;;;45.17;24.65;;;77.30;2227.20;;;;;;5062872;28;20462;-71
2021/03/19 01:10:39;;;;;;;55.80;28.30;;;77.30;2227.20;;;;;;5064563;28;20044;-70
2021/03/19 01:13:06;;;;;;;57.55;29.95;;;77.30;2227.20;;;;;;5061295;28;20078;-68
2021/03/19 01:15:32;;;;;;;66.05;32.40;;;77.30;2227.20;;;;;;5058678;28;20070;-65
2021/03/19 01:17:58;;;;;;;58.80;29.73;;;77.20;2227.20;;;;;;5064001;28;20016;-70
2021/03/19 01:20:27;;;;;;;64.32;32.05;;;77.20;2227.20;;;;;;5062988;28;20159;-65
2021/03/19 01:22:54;;;;;;;76.78;37.05;;;77.20;2227.20;;;;;;5060508;28;20023;-69
2021/03/19 01:25:22;;;;;;;65.93;32.63;;;77.20;2227.20;;;;;;5053502;28;20508;-68
2021/03/19 01:27:48;;;;;;;64.18;30.33;;;77.20;2227.20;;;;;;5035637;28;20072;-66
2021/03/19 01:30:20;;;;;;;60.97;31.17;;;77.10;2227.20;;;;;;5053616;28;20084;-70
2021/03/19 01:32:47;;;;;;;57.83;30.67;;;77.10;2227.20;;;;;;5053475;28;20067;-69
2021/03/19 01:35:14;;;;;;;68.65;34.40;;;77.10;2227.20;;;;;;5053581;28;20025;-70
2021/03/19 01:37:40;;;;;;;67.55;33.50;;;77.20;2227.20;;;;;;5053485;28;20148;-69
2021/03/19 01:40:07;;;;;;;71.38;34.88;;;77.20;2227.20;;;;;;5053410;28;20024;-69
2021/03/19 01:42:41;;;;;;;89.45;41.83;;;77.10;2227.20;;;;;;5063151;28;20037;-69
2021/03/19 01:45:31;;;;;;;81.07;38.58;;;77.20;2227.20;;;;;;5059841;28;20018;-61
2021/03/19 01:48:34;;;;;;;80.35;37.90;;;77.10;2227.20;;;;;;5062528;28;20130;-70
2021/03/19 01:51:37;;;;;;;75.82;37.83;;;77.10;2227.20;;;;;;5057134;28;20028;-69
2021/03/19 01:54:40;;;;;;;75.43;39.05;;;77.10;2227.20;;;;;;5042158;28;20025;-66
2021/03/19 01:57:43;;;;;;;82.47;40.38;;;77.00;2227.20;;;;;;5042101;28;20017;-68
2021/03/19 02:00:46;;;;;;;87.37;41.77;;;77.00;2227.20;;;;;;5042750;28;20014;-71
2021/03/19 02:03:49;;;;;;;81.60;41.72;;;77.00;2227.20;;;;;;5042727;28;20486;-68
2021/03/19 02:06:52;;;;;;;85.22;41.63;;;77.00;2227.20;;;;;;5043000;28;20041;-70
2021/03/19 02:09:55;;;;;;;78.20;39.42;;;76.90;2227.20;;;;;;5040709;28;20405;-68
2021/03/19 02:12:58;;;;;;;85.05;40.97;;;76.90;2227.20;;;;;;5041229;28;20042;-70
2021/03/19 02:16:01;;;;;;;73.32;37.90;;;76.90;2227.20;;;;;;5039470;28;20099;-70
2021/03/19 02:19:04;;;;;;;80.43;41.00;;;76.90;2227.20;;;;;;5044590;28;20059;-67
2021/03/19 02:22:07;;;;;;;87.65;42.47;;;76.80;2227.20;;;;;;5042215;28;20072;-70
2021/03/19 02:25:10;;;;;;;94.70;45.35;;;76.80;2227.20;;;;;;5052481;28;20029;-63
2021/03/19 02:28:13;;;;;;;83.65;42.83;;;52.00;2227.20;;;;;;5045759;28;20531;-71
2021/03/19 02:31:09;;;;;;;90.10;43.08;;;52.00;2227.20;;;;;;5041365;28;20482;-70
2021/03/19 02:33:38;;;;;;;75.22;37.22;;;51.90;2227.20;;;;;;5040723;28;20119;-69
2021/03/19 02:36:05;;;;;;;80.60;40.00;;;51.90;2227.20;;;;;;5043664;28;20017;-69
2021/03/19 02:38:31;;;;;;;76.38;36.92;;;51.70;2227.20;;;;;;5045855;28;20128;-68
2021/03/19 02:40:56;;;;;;;66.80;33.65;;;51.80;2227.20;;;;;;5044954;28;20494;-69
2021/03/19 02:43:24;;;;;;;71.05;35.25;;;51.80;2227.20;;;;;;5043979;28;20788;-69
2021/03/19 02:45:50;;;;;;;67.05;33.15;;;51.70;2227.20;;;;;;5045581;28;20469;-70
2021/03/19 02:48:16;;;;;;;66.13;32.47;;;51.70;2227.20;;;;;;5044331;28;20029;-70
2021/03/19 02:50:43;;;;;;;71.95;34.15;;;51.70;2227.20;;;;;;5043997;28;20112;-64
2021/03/19 02:53:18;;;;;;;89.60;44.92;;;51.60;2227.20;;;;;;5043515;28;20038;-71
2021/03/19 02:55:44;;;;;;;81.30;37.90;;;51.50;2227.20;;;;;;5043510;28;20021;-68
2021/03/19 02:58:10;;;;;;;72.85;34.55;;;51.50;2227.20;;;;;;5046246;28;20036;-69
2021/03/19 03:00:36;;;;;;;76.28;35.97;;;51.50;2227.20;;;;;;5046185;28;20053;-67
2021/03/19 03:03:03;;;;;;;72.03;35.60;;;51.40;2227.20;;;;;;5044005;28;20028;-68
2021/03/19 03:05:29;;;;;;;68.10;33.00;;;51.40;2227.20;;;;;;5024875;28;20049;-64
2021/03/19 03:07:56;;;;;;;72.55;35.63;;;51.40;2227.20;;;;;;5025510;28;20021;-67
2021/03/19 03:10:24;;;;;;;67.55;33.35;;;51.50;2227.20;;;;;;5023158;28;20100;-65
2021/03/19 03:12:50;;;;;;;66.80;33.17;;;51.50;2227.20;;;;;;5023286;28;20029;-69
2021/03/19 03:15:18;;;;;;;60.58;31.23;;;51.50;2227.20;;;;;;5024457;28;20068;-69
2021/03/19 03:17:46;;;;;;;67.10;33.60;;;51.40;2227.20;;;;;;5025321;28;20037;-69
2021/03/19 03:20:29;;;;;;;65.25;33.80;;;51.40;2227.20;;;;;;5025313;28;20096;-68
2021/03/19 03:22:55;;;;;;;63.55;29.65;;;51.50;2227.20;;;;;;5026853;28;20405;-68
2021/03/19 03:25:23;;;;;;;69.45;32.63;;;51.40;2227.20;;;;;;5023769;28;20029;-68
2021/03/19 03:27:50;;;;;;;52.67;26.63;;;51.40;2227.20;;;;;;5025079;28;20541;-70
2021/03/19 03:30:22;;;;;;;51.40;26.23;;;51.40;2227.20;;;;;;5023943;28;20029;-69
2021/03/19 03:32:49;;;;;;;53.95;27.83;;;51.40;2227.20;;;;;;5022866;28;20048;-69
2021/03/19 03:35:15;;;;;;;49.38;26.38;;;51.60;2227.20;;;;;;5024731;28;20080;-69
2021/03/19 03:37:42;;;;;;;54.75;28.95;;;51.50;2227.20;;;;;;5024786;28;20021;-68
2021/03/19 03:40:12;;;;;;;56.13;27.30;;;51.50;2227.20;;;;;;5022843;28;20072;-69
2021/03/19 03:42:38;;;;;;;56.47;29.27;;;51.60;2227.20;;;;;;5006210;28;20387;-70
2021/03/19 03:45:07;;;;;;;54.75;28.85;;;51.60;2227.20;;;;;;5024428;28;20029;-69
2021/03/19 03:47:32;;;;;;;67.63;34.03;;;51.60;2227.20;;;;;;5024828;28;20137;-69
2021/03/19 03:49:58;;;;;;;96.30;44.45;;;51.60;2227.20;;;;;;5023710;28;20029;-71
2021/03/19 03:52:24;;;;;;;111.85;52.15;;;51.60;2227.20;;;;;;5024264;28;20038;-71
2021/03/19 03:54:49;;;;;;;121.55;58.17;;;51.70;2227.20;;;;;;5024720;28;20075;-71
2021/03/19 03:57:15;;;;;;;118.50;59.53;;;51.80;2227.20;;;;;;5021893;28;20459;-71
2021/03/19 03:59:41;;;;;;;111.55;56.10;;;51.70;2227.20;;;;;;5023906;28;20029;-70
2021/03/19 04:02:24;;;;;;;111.18;56.05;;;51.80;2227.20;;;;;;5022506;28;20025;-69
2021/03/19 04:04:50;;;;;;;110.57;55.92;;;51.90;2227.20;;;;;;5036517;28;20045;-68
2021/03/19 04:07:16;;;;;;;117.82;57.67;;;51.90;2227.20;;;;;;5043873;28;20021;-69
2021/03/19 04:09:42;;;;;;;112.45;54.95;;;52.00;2227.20;;;;;;5043569;28;20018;-69
2021/03/19 04:12:13;;;;;;;109.47;54.95;;;52.00;2227.20;;;;;;5042111;28;20025;-69
2021/03/19 04:14:40;;;;;;;109.20;54.50;;;52.10;2227.20;;;;;;5043067;28;20028;-69
2021/03/19 04:17:11;;;;;;;108.95;55.03;;;52.10;2227.20;;;;;;5035015;28;20406;-69
2021/03/19 04:19:37;;;;;;;100.50;51.85;;;52.10;2227.20;;;;;;5035166;28;20022;-69
2021/03/19 04:22:04;;;;;;;100.88;52.55;;;52.10;2227.20;;;;;;5045805;28;20020;-67
2021/03/19 04:24:30;;;;;;;101.68;51.53;;;52.10;2227.20;;;;;;5044274;28;20040;-64
2021/03/19 04:26:56;;;;;;;105.30;52.80;;;52.10;2227.20;;;;;;5041634;28;20100;-67
2021/03/19 04:29:22;;;;;;;104.07;51.15;;;52.10;2227.20;;;;;;5043123;28;20029;-68
2021/03/19 04:31:48;;;;;;;95.38;48.65;;;52.00;2227.20;;;;;;5042687;28;20083;-68
2021/03/19 04:34:13;;;;;;;104.85;50.00;;;52.00;2227.20;;;;;;5041618;28;20037;-63
2021/03/19 04:36:48;;;;;;;108.72;51.33;;;52.00;2227.20;;;;;;5050849;28;20029;-69
2021/03/19 04:39:19;;;;;;;108.25;51.60;;;51.90;2227.20;;;;;;5054671;28;20031;-69
2021/03/19 04:41:47;;;;;;;113.25;52.53;;;51.90;2227.20;;;;;;5054530;28;20021;-65
2021/03/19 04:44:13;;;;;;;105.15;49.63;;;51.90;2227.20;;;;;;5056888;28;20032;-69
2021/03/19 04:46:39;;;;;;;121.05;51.60;;;51.80;2227.20;;;;;;5074176;28;20029;-68
2021/03/19 04:49:05;;;;;;;127.38;52.30;;;51.80;2227.20;;;;;;5074295;28;20051;-69
2021/03/19 04:51:31;;;;;;;147.85;61.15;;;51.80;2227.20;;;;;;5074053;28;20470;-66
2021/03/19 04:53:57;;;;;;;181.02;68.32;;;51.80;2227.20;;;;;;5055908;28;20037;-68
2021/03/19 04:56:23;;;;;;;216.30;78.97;;;51.80;2227.20;;;;;;5074418;28;20029;-64
2021/03/19 04:58:49;;;;;;;281.95;94.80;;;51.80;2227.20;;;;;;5056636;28;20075;-67
2021/03/19 05:01:16;;;;;;;188.85;70.50;;;51.90;2227.20;;;;;;5056418;28;20035;-68
2021/03/19 05:03:43;;;;;;;132.73;57.05;;;51.90;2227.20;;;;;;5057609;28;20071;-66
2021/03/19 05:06:09;;;;;;;141.30;57.65;;;52.00;2227.20;;;;;;5064315;28;20021;-64
2021/03/19 05:08:34;;;;;;;94.13;43.33;;;52.00;2227.20;;;;;;5031271;28;20060;-68
2021/03/19 05:11:00;;;;;;;116.65;48.65;;;52.00;2227.20;;;;;;5042277;28;20018;-66
2021/03/19 05:13:26;;;;;;;98.38;45.13;;;52.10;2227.20;;;;;;5047276;28;20730;-69
2021/03/19 05:15:52;;;;;;;91.07;47.15;;;52.10;2227.20;;;;;;5040552;28;20017;-67
2021/03/19 05:18:18;;;;;;;88.10;45.47;;;76.80;2227.20;;;;;;5042532;28;20068;-67
2021/03/19 05:20:44;;;;;;;96.75;50.65;;;76.80;2227.20;;;;;;5042340;28;20108;-64
2021/03/19 05:23:21;;;;;;;91.43;47.90;;;76.80;2227.20;;;;;;5040279;28;20108;-65
2021/03/19 05:25:47;;;;;;;76.10;38.72;;;76.80;2227.20;;;;;;5040934;28;20567;-68
2021/03/19 05:28:13;;;;;;;57.72;30.00;;;76.90;2227.20;;;;;;5042808;28;20017;-67
2021/03/19 05:30:39;;;;;;;52.70;28.58;;;76.90;2227.20;;;;;;5041410;28;20029;-68
2021/03/19 05:33:06;;;;;;;54.15;28.73;;;77.00;2227.20;;;;;;5040984;28;20025;-63
2021/03/19 05:35:32;;;;;;;47.95;26.25;;;77.10;2227.20;;;;;;5040218;28;20033;-64
2021/03/19 05:37:58;;;;;;;50.03;26.95;;;77.20;2227.20;;;;;;5040830;28;20021;-66
2021/03/19 05:40:32;;;;;;;53.92;28.95;;;77.30;2227.20;;;;;;5041421;28;20370;-67
2021/03/19 05:43:20;;;;;;;57.28;29.23;;;77.30;2227.20;;;;;;5042106;28;20096;-64
2021/03/19 05:45:56;;;;;;;51.50;27.67;;;77.30;2227.20;;;;;;5042577;28;20021;-63
2021/03/19 05:48:23;;;;;;;50.63;28.27;;;77.30;2227.20;;;;;;5042335;28;20025;-67
2021/03/19 05:50:49;;;;;;;50.60;27.52;;;77.40;2227.20;;;;;;5048858;28;20112;-68
2021/03/19 05:53:18;;;;;;;56.75;31.27;;;77.50;2227.20;;;;;;5053380;28;20077;-69
2021/03/19 05:55:44;;;;;;;60.00;32.85;;;77.60;2227.20;;;;;;5071742;28;20025;-63
2021/03/19 05:58:28;;;;;;;56.25;30.08;;;102.40;2227.20;;;;;;5064230;28;20043;-68
2021/03/19 06:00:57;;;;;;;56.88;29.83;;;102.50;2227.20;;;;;;5053276;28;20071;-68
2021/03/19 06:03:24;;;;;;;64.20;34.30;;;102.50;2227.20;;;;;;5063645;28;20028;-65
2021/03/19 06:06:04;;;;;;;69.78;36.50;;;102.50;2227.20;;;;;;5073478;28;20130;-68
2021/03/19 06:08:39;;;;;;;63.40;34.08;;;102.60;2227.20;;;;;;5061645;28;20056;-69
2021/03/19 06:11:07;;;;;;;61.15;34.33;;;102.60;2227.20;;;;;;5056710;28;20029;-67
2021/03/19 06:13:45;;;;;;;74.95;37.05;;;102.60;2227.20;;;;;;5057289;28;20041;-68
2021/03/19 06:16:20;;;;;;;70.97;35.90;;;102.60;2227.20;;;;;;5057032;28;20032;-68
2021/03/19 06:18:51;;;;;;;77.88;37.47;;;102.70;2227.20;;;;;;5057131;28;20084;-69
2021/03/19 06:21:19;;;;;;;75.53;35.50;;;102.80;2227.20;;;;;;5057155;28;20470;-69
2021/03/19 06:24:14;;;;;;;56.47;32.50;;;102.80;2227.20;;;;;;5057079;28;20021;-69
2021/03/19 06:26:42;;;;;;;55.30;31.58;;;102.90;2227.20;;;;;;5038815;28;20033;-69
2021/03/19 06:29:32;;;;;;;57.13;32.35;;;103.30;2227.20;;;;;;5049014;28;20074;-69
2021/03/19 06:32:12;;;;;;;52.72;29.08;;;128.30;2252.80;;;;;;5076669;28;20029;-68
2021/03/19 06:35:07;;;;;;;41.70;25.02;;;128.70;2252.80;;;;;;5076711;28;20032;-69
2021/03/19 06:37:34;;;;;;;53.47;27.60;;;153.70;2252.80;;;;;;4995336;28;20042;-74
2021/03/19 06:40:07;;;;;;;42.60;24.85;;;154.10;2252.80;;;;;;4995553;28;20592;-73
2021/03/19 06:42:38;;;;;;;40.33;23.70;;;154.40;2252.80;;;;;;4995318;28;20488;-73
2021/03/19 06:45:15;;;;;;;40.28;24.58;;;179.30;2227.20;;;;;;4995248;28;20154;-72
2021/03/19 06:47:44;;;;;;;40.72;26.52;;;180.00;2150.40;;;;;;4995287;28;20073;-72
2021/03/19 06:50:14;;;;;;;38.97;23.35;;;205.30;2048.00;;;;;;4995319;28;20446;-72
2021/03/19 06:52:40;;;;;;;32.17;21.25;;;230.80;1894.40;;;;;;4988749;28;20130;-70
2021/03/19 06:55:27;;;;;;;37.35;23.10;;;231.20;1817.60;;;;;;4974625;28;20039;-61
2021/03/19 06:57:52;;;;;;;43.35;25.92;;;231.30;1792.00;;;;;;4975269;28;20041;-60
2021/03/19 07:00:41;;;;;;;38.53;26.60;;;256.70;1689.60;;;;;;4961186;28;20062;-59
2021/03/19 07:03:31;;;;;;;35.47;25.75;;;282.10;1664.00;;;;;;4991997;28;20038;-59
2021/03/19 07:06:35;;;;;;;30.58;22.55;;;333.00;1510.40;;;;;;4986027;28;20033;-60
2021/03/19 07:09:18;;;;;;;28.95;20.67;;;358.70;1356.80;;;;;;4935577;29;20077;-60
2021/03/19 07:12:14;;;;;;;29.80;22.27;;;359.20;1280.00;;;;;;4935515;29;20425;-59
2021/03/19 07:14:45;;;;;;;29.38;21.70;;;358.40;1331.20;;;;;;4960659;28;20159;-60
2021/03/19 07:17:26;;;;;;;24.45;18.35;;;333.70;1356.80;;;;;;4973831;28;20047;-61
2021/03/19 07:20:28;;;;;;;28.48;20.92;;;358.90;1280.00;;;;;;4973609;28;20031;-59
2021/03/19 07:23:27;;;;;;;27.85;19.17;;;358.50;1305.60;;;;;;4972948;28;20027;-59
2021/03/19 07:26:18;;;;;;;31.60;25.25;;;332.80;1433.60;;;;;;4899970;29;20240;-60
2021/03/19 07:29:08;;;;;;;43.33;34.22;;;307.60;1459.20;;;;;;4916542;29;20032;-59
2021/03/19 07:31:39;;;;;;;28.50;21.55;;;282.50;1510.40;;;;;;4916364;29;20131;-59
2021/03/19 07:34:32;;;;;;;24.02;18.65;;;282.10;1536.00;;;;;;4916234;29;20047;-59
2021/03/19 07:37:28;;;;;;;21.02;16.02;;;282.00;1561.60;;;;;;4916394;29;20040;-58
2021/03/19 07:40:27;;;;;;;19.70;13.82;;;282.00;1561.60;;;;;;4916423;29;20040;-58
2021/03/19 07:43:15;;;;;;;21.92;15.82;;;282.20;1510.40;;;;;;4913044;29;20072;-59
2021/03/19 07:46:15;;;;;;;22.42;16.30;;;282.10;1510.40;;;;;;4931454;28;20568;-58
2021/03/19 07:48:52;;;;;;;20.50;15.35;;;282.10;1561.60;;;;;;4966970;28;20556;-58
2021/03/19 07:51:23;;;;;;;17.23;11.90;;;281.80;1587.20;;;;;;4977277;28;20034;-58
2021/03/19 07:54:04;;;;;;;18.23;13.90;;;256.80;1587.20;;;;;;4999354;28;20030;-59
2021/03/19 07:56:40;;;;;;;23.38;15.35;;;256.70;1638.40;;;;;;5000750;28;20030;-59
2021/03/19 07:59:24;;;;;;;22.38;15.55;;;256.60;1638.40;;;;;;4999492;28;20033;-59
2021/03/19 08:01:50;;;;;;;23.17;16.50;;;256.20;1664.00;;;;;;5025309;28;20041;-59
2021/03/19 08:04:37;;;;;;;24.67;17.00;;;231.30;1689.60;;;;;;5048711;28;20102;-58
2021/03/19 08:07:25;;;;;;;29.95;20.23;;;231.00;1715.20;;;;;;5058907;28;20111;-58
2021/03/19 08:10:02;;;;;;;27.38;18.95;;;230.90;1740.80;;;;;;5055478;28;20013;-58
2021/03/19 08:12:38;;;;;;;24.58;16.45;;;231.00;1689.60;;;;;;5057720;28;20040;-58
2021/03/19 08:15:34;;;;;;;22.75;15.55;;;231.10;1638.40;;;;;;5054179;28;20025;-58
2021/03/19 08:18:16;;;;;;;19.90;14.00;;;256.00;1638.40;;;;;;5059906;28;20025;-59
2021/03/19 08:21:09;;;;;;;18.38;12.85;;;256.10;1612.80;;;;;;5054386;28;20127;-58
2021/03/19 08:23:56;;;;;;;24.42;15.07;;;256.40;1561.60;;;;;;5053806;28;20421;-58
2021/03/19 08:26:47;;;;;;;17.08;11.60;;;256.50;1510.40;;;;;;5060866;28;20460;-58
2021/03/19 08:29:32;;;;;;;15.63;11.20;;;256.60;1536.00;;;;;;4981515;28;20110;-58
2021/03/19 08:32:15;;;;;;;20.90;13.82;;;256.70;1484.80;;;;;;4981871;28;20058;-58
2021/03/19 08:35:14;;;;;;;22.10;13.90;;;256.90;1484.80;;;;;;4982189;28;20061;-58
2021/03/19 08:38:18;;;;;;;18.98;12.30;;;256.80;1433.60;;;;;;4964860;28;20026;-59
2021/03/19 08:40:47;;;;;;;23.10;12.48;;;256.80;1408.00;;;;;;4935080;29;20087;-58
2021/03/19 08:43:25;;;;;;;20.08;12.02;;;256.40;1433.60;;;;;;4924578;29;20560;-58
2021/03/19 08:46:06;;;;;;;17.42;12.05;;;256.50;1433.60;;;;;;4930927;29;20438;-58
2021/03/19 08:48:45;;;;;;;16.55;11.57;;;231.20;1484.80;;;;;;4932879;29;20062;-58
2021/03/19 08:51:27;;;;;;;23.10;14.15;;;230.80;1484.80;;;;;;4930541;29;20067;-58
2021/03/19 08:54:12;;;;;;;25.25;14.43;;;231.00;1561.60;;;;;;4931494;29;20040;-58
2021/03/19 08:56:44;;;;;;;21.95;13.80;;;231.30;1510.40;;;;;;4931942;29;20039;-58
2021/03/19 08:59:30;;;;;;;19.30;12.25;;;231.10;1510.40;;;;;;4930590;29;20377;-59
2021/03/19 09:01:58;;;;;;;22.48;13.75;;;230.90;1484.80;;;;;;4932730;29;20024;-58
2021/03/19 09:04:51;;;;;;;26.65;15.65;;;230.80;1561.60;;;;;;4927091;29;20058;-59
2021/03/19 09:07:37;;;;;;;27.80;15.38;;;230.60;1561.60;;;;;;4972524;28;20500;-59
2021/03/19 09:10:18;;;;;;;26.70;15.18;;;230.60;1587.20;;;;;;4965136;28;20098;-58
2021/03/19 09:12:56;;;;;;;22.08;14.48;;;205.70;1612.80;;;;;;4988555;28;20080;-59
2021/03/19 09:15:22;;;;;;;93.38;46.15;;;205.60;1638.40;;;;;;4976701;28;20023;-58
2021/03/19 09:17:54;;;;;;;41.03;24.95;;;205.50;1638.40;;;;;;5020603;28;20044;-59
2021/03/19 09:20:39;;;;;;;24.75;14.60;;;205.40;1664.00;;;;;;5039617;28;20356;-59
2021/03/19 09:23:15;;;;;;;37.92;18.33;;;205.20;1664.00;;;;;;5038594;28;20044;-59
2021/03/19 09:25:50;;;;;;;37.20;19.33;;;205.10;1638.40;;;;;;5039558;28;20025;-59
2021/03/19 09:28:19;;;;;;;29.20;19.92;;;180.10;1740.80;;;;;;5038120;28;20056;-59
2021/03/19 09:30:58;;;;;;;35.92;18.58;;;204.80;1766.40;;;;;;5039921;28;20024;-60
2021/03/19 09:33:43;;;;;;;36.25;21.73;;;204.90;1689.60;;;;;;5040881;28;20113;-59
2021/03/19 09:36:46;;;;;;;48.40;28.83;;;205.10;1740.80;;;;;;5040192;28;20025;-59
2021/03/19 09:39:46;;;;;;;39.63;24.67;;;205.70;1638.40;;;;;;5039431;28;20060;-60
2021/03/19 09:42:31;;;;;;;27.33;21.63;;;256.00;1510.40;;;;;;5049645;28;20100;-59
2021/03/19 09:45:02;;;;;;;16.65;13.20;;;256.50;1408.00;;;;;;4987607;28;20040;-59
2021/03/19 09:47:42;;;;;;;25.65;17.75;;;281.70;1382.40;;;;;;4980023;28;20134;-58
2021/03/19 09:50:15;;;;;;;17.42;13.30;;;282.10;1331.20;;;;;;4976356;28;20537;-60
2021/03/19 09:52:57;;;;;;;15.75;11.18;;;358.50;1126.40;;;;;;4972498;28;20200;-59
2021/03/19 09:55:25;;;;;;;15.70;12.38;;;333.60;1126.40;;;;;;4971785;28;20031;-59
2021/03/19 09:57:51;;;;;;;41.42;24.80;;;333.60;1152.00;;;;;;4972162;28;20389;-59
2021/03/19 10:00:24;;;;;;;18.13;13.27;;;333.60;1100.80;;;;;;4975557;28;20161;-59
2021/03/19 10:02:50;;;;;;;16.98;12.02;;;333.30;1152.00;;;;;;4976715;28;20039;-59
2021/03/19 10:05:15;;;;;;;13.60;10.90;;;333.10;1203.20;;;;;;4980163;28;20105;-59
2021/03/19 10:07:44;;;;;;;15.93;11.65;;;333.00;1152.00;;;;;;4976054;28;20030;-59
2021/03/19 10:10:33;;;;;;;15.10;12.48;;;308.10;1203.20;;;;;;4957867;28;20115;-59
2021/03/19 10:13:07;;;;;;;16.52;11.85;;;308.10;1177.60;;;;;;4980529;28;20031;-61
2021/03/19 10:15:33;;;;;;;14.10;11.38;;;308.00;1203.20;;;;;;4979847;28;20035;-60
2021/03/19 10:18:03;;;;;;;14.00;11.52;;;307.90;1228.80;;;;;;4980038;28;20069;-61
2021/03/19 10:20:53;;;;;;;14.55;10.73;;;307.60;1228.80;;;;;;4981265;28;20110;-61
2021/03/19 10:23:22;;;;;;;13.65;10.05;;;307.20;1254.40;;;;;;5035801;28;20041;-61
2021/03/19 10:25:49;;;;;;;13.73;10.18;;;282.10;1203.20;;;;;;5040143;28;20037;-61
2021/03/19 10:28:24;;;;;;;14.80;11.27;;;281.80;1228.80;;;;;;5023842;28;20095;-60
2021/03/19 10:30:52;;;;;;;16.95;11.48;;;281.60;1228.80;;;;;;5042623;28;20017;-60
2021/03/19 10:33:42;;;;;;;14.43;10.40;;;281.80;1254.40;;;;;;5040159;28;20419;-60
2021/03/19 10:36:32;;;;;;;14.77;10.48;;;281.90;1228.80;;;;;;5040138;28;20017;-60
2021/03/19 10:39:30;;;;;;;50.22;26.55;;;282.00;1254.40;;;;;;5041715;28;20018;-59
2021/03/19 10:42:12;;;;;;;18.55;13.57;;;281.70;1203.20;;;;;;5051923;28;20091;-60
2021/03/19 10:44:52;;;;;;;36.40;20.85;;;256.80;1203.20;;;;;;5052351;28;20024;-60
2021/03/19 10:47:27;;;;;;;39.80;22.13;;;256.30;1254.40;;;;;;5052314;28;20021;-60
2021/03/19 10:49:55;;;;;;;;;;;256.60;1203.20;;;;;;5052773;28;20027;-60
2021/03/19 10:52:59;;;;;;;19.13;14.10;;;256.60;1203.20;;;;;;5052327;28;20340;-59
2021/03/19 10:55:32;;;;;;;;;;;256.50;1228.80;;;;;;5052654;28;20028;-60
2021/03/19 10:58:20;;;;;;;14.70;10.65;;;256.30;1254.40;;;;;;5037486;28;19905;-59
2021/03/19 11:00:48;;;;;;;19.63;14.18;;;256.20;1280.00;;;;;;5056223;28;20033;-60
2021/03/19 11:03:32;;;;;;;46.65;35.13;;;256.10;1280.00;;;;;;5056448;28;20025;-60
2021/03/19 11:06:00;;;;;;;19.15;12.95;;;231.30;1254.40;;;;;;5075623;28;20048;-60
2021/03/19 11:08:26;;;;;;;22.23;16.33;;;256.00;1254.40;;;;;;5075905;28;20033;-60
2021/03/19 11:10:53;;;;;;;20.88;15.40;;;256.00;1305.60;;;;;;5076037;28;20358;-60
2021/03/19 11:13:25;;;;;;;22.85;16.35;;;231.30;1331.20;;;;;;5075602;28;20036;-60
2021/03/19 11:15:54;;;;;;;20.45;14.35;;;231.20;1382.40;;;;;;5075633;28;20366;-60
2021/03/19 11:18:33;;;;;;;18.73;12.77;;;231.10;1382.40;;;;;;5075745;28;20081;-61
2021/03/19 11:21:07;;;;;;;28.35;19.25;;;231.10;1356.80;;;;;;5057760;28;20055;-60
2021/03/19 11:23:40;;;;;;;24.42;17.25;;;231.00;1382.40;;;;;;5075600;28;20020;-60
2021/03/19 11:26:36;;;;;;;26.25;18.98;;;231.10;1382.40;;;;;;5075580;28;20036;-60
2021/03/19 11:29:17;;;;;;;18.95;13.85;;;231.10;1382.40;;;;;;5075809;28;20028;-61
2021/03/19 11:32:00;;;;;;;23.45;14.75;;;231.10;1382.40;;;;;;5075344;28;20028;-60
2021/03/19 11:34:42;;;;;;;20.40;13.73;;;231.00;1356.80;;;;;;5075308;28;20067;-61
2021/03/19 11:37:21;;;;;;;24.75;16.50;;;231.00;1331.20;;;;;;5075201;28;20686;-61
2021/03/19 11:39:50;;;;;;;33.63;21.13;;;231.20;1382.40;;;;;;5075247;28;20429;-61
2021/03/19 11:42:17;;;;;;;17.98;13.48;;;256.00;1331.20;;;;;;5075427;28;20056;-61
2021/03/19 11:44:46;;;;;;;109.53;67.80;;;231.20;1305.60;;;;;;5074802;28;20047;-61
2021/03/19 11:47:14;;;;;;;22.08;16.25;;;256.30;1280.00;;;;;;5075032;28;20351;-60
2021/03/19 11:49:40;;;;;;;20.33;14.32;;;256.90;1280.00;;;;;;5075007;28;20033;-61
2021/03/19 11:52:06;;;;;;;27.50;18.38;;;282.40;1177.60;;;;;;5075031;28;20028;-60
2021/03/19 11:54:32;;;;;;;23.27;16.75;;;307.50;1203.20;;;;;;5075320;28;20025;-60
2021/03/19 11:56:57;;;;;;;17.15;12.68;;;332.80;1126.40;;;;;;5075087;28;20409;-61
2021/03/19 11:59:23;;;;;;;22.33;15.70;;;333.20;1126.40;;;;;;5074748;28;20033;-60
2021/03/19 12:01:49;;;;;;;23.67;16.48;;;333.60;1075.20;;;;;;5055871;28;20025;-60
2021/03/19 12:04:20;;;;;;;24.55;16.08;;;333.70;1075.20;;;;;;5054649;28;20399;-60
2021/03/19 12:06:46;;;;;;;22.80;14.50;;;358.50;1075.20;;;;;;5054748;28;20454;-60
2021/03/19 12:09:12;;;;;;;15.25;12.13;;;359.00;998.40;;;;;;5054347;28;20466;-61
2021/03/19 12:11:40;;;;;;;15.73;12.23;;;435.90;819.20;;;;;;5054675;28;20071;-62
2021/03/19 12:14:16;;;;;;;11.68;10.43;;;537.90;665.60;;;;;;5054449;28;20540;-62
2021/03/19 12:16:42;;;;;;;13.65;11.20;;;589.70;563.20;;;;;;5036617;28;20025;-63
2021/03/19 12:19:07;;;;;;;62.40;33.58;;;665.60;486.40;;;;;;5054521;28;20087;-64
2021/03/19 12:21:33;;;;;;;12.60;11.10;;;640.80;435.20;;;;;;5054447;28;20486;-63
2021/03/19 12:23:59;;;;;;;12.52;11.15;;;691.20;384.00;;;;;;5054477;28;20032;-64
2021/03/19 12:26:24;;;;;;;12.98;11.57;;;640.40;460.80;;;;;;5054355;28;20032;-63
2021/03/19 12:28:50;;;;;;;31.48;20.40;;;589.40;537.60;;;;;;5053982;28;20029;-62
2021/03/19 12:31:16;;;;;;;66.20;36.92;;;512.80;640.00;;;;;;5054298;28;20025;-61
2021/03/19 12:33:42;;;;;;;17.83;12.82;;;487.00;691.20;;;;;;5054299;28;20482;-61
2021/03/19 12:36:09;;;;;;;32.28;18.60;;;461.40;742.40;;;;;;5054413;28;20021;-61
2021/03/19 12:38:35;;;;;;;176.05;65.05;;;435.40;768.00;;;;;;5054304;28;20035;-61
2021/03/19 12:41:02;;;;;;;40.97;20.65;;;384.30;819.20;;;;;;5050529;28;20017;-61